sensor_id;sensor_type;location;lat;lon;timestamp;P1;durP1;ratioP1;P2;durP2;ratioP2
31906;SDS011;18455;50.858;13.662;2023-08-20T00:01:58;9.15;;;7.35;;
31906;SDS011;18455;50.858;13.662;2023-08-20T00:07:02;12.20;;;7.53;;
31906;SDS011;18455;50.858;13.662;2023-08-20T00:12:02;9.52;;;6.93;;
31906;SDS011;18455;50.858;13.662;2023-08-20T00:17:05;12.68;;;7.55;;
31906;SDS011;18455;50.858;13.662;2023-08-20T00:22:06;9.50;;;7.70;;
31906;SDS011;18455;50.858;13.662;2023-08-20T00:27:06;10.73;;;7.80;;
31906;SDS011;18455;50.858;13.662;2023-08-20T00:32:06;12.05;;;7.53;;
31906;SDS011;18455;50.858;13.662;2023-08-20T00:37:07;9.82;;;7.20;;
31906;SDS011;18455;50.858;13.662;2023-08-20T00:42:08;10.00;;;7.13;;
31906;SDS011;18455;50.858;13.662;2023-08-20T00:47:08;11.52;;;6.90;;
31906;SDS011;18455;50.858;13.662;2023-08-20T00:52:09;8.27;;;6.90;;
31906;SDS011;18455;50.858;13.662;2023-08-20T00:57:12;7.57;;;6.40;;
31906;SDS011;18455;50.858;13.662;2023-08-20T01:02:15;10.20;;;7.28;;
31906;SDS011;18455;50.858;13.662;2023-08-20T01:07:24;9.18;;;6.60;;
31906;SDS011;18455;50.858;13.662;2023-08-20T01:12:26;8.60;;;6.70;;
31906;SDS011;18455;50.858;13.662;2023-08-20T01:17:26;9.07;;;7.20;;
31906;SDS011;18455;50.858;13.662;2023-08-20T01:33:16;13.20;;;7.47;;
31906;SDS011;18455;50.858;13.662;2023-08-20T01:38:16;7.45;;;6.75;;
31906;SDS011;18455;50.858;13.662;2023-08-20T01:43:17;9.85;;;6.97;;
31906;SDS011;18455;50.858;13.662;2023-08-20T01:48:17;11.65;;;7.38;;
31906;SDS011;18455;50.858;13.662;2023-08-20T01:53:17;9.80;;;6.70;;
31906;SDS011;18455;50.858;13.662;2023-08-20T01:58:18;7.38;;;6.65;;
31906;SDS011;18455;50.858;13.662;2023-08-20T02:03:18;10.57;;;7.40;;
31906;SDS011;18455;50.858;13.662;2023-08-20T02:08:18;9.10;;;6.93;;
31906;SDS011;18455;50.858;13.662;2023-08-20T02:13:19;9.93;;;6.32;;
31906;SDS011;18455;50.858;13.662;2023-08-20T02:18:19;11.32;;;6.20;;
31906;SDS011;18455;50.858;13.662;2023-08-20T02:23:20;11.50;;;6.80;;
31906;SDS011;18455;50.858;13.662;2023-08-20T02:28:20;7.22;;;6.50;;
31906;SDS011;18455;50.858;13.662;2023-08-20T02:33:20;8.43;;;6.68;;
31906;SDS011;18455;50.858;13.662;2023-08-20T02:38:21;7.85;;;6.55;;
31906;SDS011;18455;50.858;13.662;2023-08-20T02:43:21;11.95;;;7.13;;
31906;SDS011;18455;50.858;13.662;2023-08-20T02:48:22;7.47;;;6.72;;
31906;SDS011;18455;50.858;13.662;2023-08-20T02:53:28;10.57;;;7.30;;
31906;SDS011;18455;50.858;13.662;2023-08-20T02:58:28;9.07;;;7.43;;
31906;SDS011;18455;50.858;13.662;2023-08-20T03:03:29;7.45;;;6.70;;
31906;SDS011;18455;50.858;13.662;2023-08-20T03:08:29;7.18;;;6.47;;
31906;SDS011;18455;50.858;13.662;2023-08-20T03:13:30;7.05;;;6.40;;
31906;SDS011;18455;50.858;13.662;2023-08-20T03:18:30;13.15;;;7.22;;
31906;SDS011;18455;50.858;13.662;2023-08-20T03:23:30;10.45;;;6.60;;
31906;SDS011;18455;50.858;13.662;2023-08-20T03:28:31;9.45;;;7.57;;
31906;SDS011;18455;50.858;13.662;2023-08-20T03:33:32;9.75;;;7.18;;
31906;SDS011;18455;50.858;13.662;2023-08-20T03:38:32;11.27;;;7.60;;
31906;SDS011;18455;50.858;13.662;2023-08-20T03:43:33;11.20;;;7.75;;
31906;SDS011;18455;50.858;13.662;2023-08-20T03:48:33;11.68;;;7.57;;
31906;SDS011;18455;50.858;13.662;2023-08-20T03:53:34;8.73;;;7.82;;
31906;SDS011;18455;50.858;13.662;2023-08-20T03:58:34;10.20;;;8.30;;
31906;SDS011;18455;50.858;13.662;2023-08-20T04:03:35;10.75;;;8.68;;
31906;SDS011;18455;50.858;13.662;2023-08-20T04:08:36;13.20;;;8.35;;
31906;SDS011;18455;50.858;13.662;2023-08-20T04:13:36;13.77;;;8.32;;
31906;SDS011;18455;50.858;13.662;2023-08-20T04:18:37;13.40;;;9.02;;
31906;SDS011;18455;50.858;13.662;2023-08-20T04:23:37;11.43;;;7.95;;
31906;SDS011;18455;50.858;13.662;2023-08-20T04:28:38;13.88;;;8.80;;
31906;SDS011;18455;50.858;13.662;2023-08-20T04:33:38;32.53;;;9.18;;
31906;SDS011;18455;50.858;13.662;2023-08-20T04:38:40;14.77;;;8.35;;
31906;SDS011;18455;50.858;13.662;2023-08-20T04:43:41;12.88;;;8.65;;
31906;SDS011;18455;50.858;13.662;2023-08-20T04:48:41;13.10;;;7.80;;
31906;SDS011;18455;50.858;13.662;2023-08-20T04:53:42;9.95;;;8.35;;
31906;SDS011;18455;50.858;13.662;2023-08-20T04:58:43;11.50;;;8.07;;
31906;SDS011;18455;50.858;13.662;2023-08-20T05:03:43;15.52;;;9.13;;
31906;SDS011;18455;50.858;13.662;2023-08-20T05:08:44;15.98;;;8.40;;
31906;SDS011;18455;50.858;13.662;2023-08-20T05:13:45;11.05;;;8.80;;
31906;SDS011;18455;50.858;13.662;2023-08-20T05:18:45;18.70;;;9.30;;
31906;SDS011;18455;50.858;13.662;2023-08-20T05:23:46;14.18;;;8.55;;
31906;SDS011;18455;50.858;13.662;2023-08-20T05:28:46;17.60;;;9.30;;
31906;SDS011;18455;50.858;13.662;2023-08-20T05:33:47;14.95;;;9.20;;
31906;SDS011;18455;50.858;13.662;2023-08-20T05:38:48;12.32;;;8.65;;
31906;SDS011;18455;50.858;13.662;2023-08-20T05:43:48;14.13;;;8.98;;
31906;SDS011;18455;50.858;13.662;2023-08-20T05:48:49;12.45;;;9.73;;
31906;SDS011;18455;50.858;13.662;2023-08-20T05:53:49;14.00;;;10.35;;
31906;SDS011;18455;50.858;13.662;2023-08-20T05:58:50;15.20;;;9.40;;
31906;SDS011;18455;50.858;13.662;2023-08-20T06:03:50;14.63;;;10.73;;
31906;SDS011;18455;50.858;13.662;2023-08-20T06:08:50;15.93;;;10.50;;
31906;SDS011;18455;50.858;13.662;2023-08-20T06:13:51;13.02;;;10.90;;
31906;SDS011;18455;50.858;13.662;2023-08-20T06:18:51;12.25;;;9.82;;
31906;SDS011;18455;50.858;13.662;2023-08-20T06:23:52;14.68;;;10.85;;
31906;SDS011;18455;50.858;13.662;2023-08-20T06:28:53;17.20;;;10.07;;
31906;SDS011;18455;50.858;13.662;2023-08-20T06:33:53;14.73;;;9.57;;
31906;SDS011;18455;50.858;13.662;2023-08-20T06:38:53;11.13;;;9.90;;
31906;SDS011;18455;50.858;13.662;2023-08-20T06:43:54;16.20;;;10.00;;
31906;SDS011;18455;50.858;13.662;2023-08-20T06:48:54;10.98;;;8.57;;
31906;SDS011;18455;50.858;13.662;2023-08-20T06:53:55;13.18;;;9.07;;
31906;SDS011;18455;50.858;13.662;2023-08-20T06:58:56;13.43;;;9.45;;
31906;SDS011;18455;50.858;13.662;2023-08-20T07:03:56;9.77;;;6.90;;
31906;SDS011;18455;50.858;13.662;2023-08-20T07:08:57;11.77;;;8.18;;
31906;SDS011;18455;50.858;13.662;2023-08-20T07:13:57;14.65;;;8.27;;
31906;SDS011;18455;50.858;13.662;2023-08-20T07:18:58;8.73;;;7.15;;
31906;SDS011;18455;50.858;13.662;2023-08-20T07:23:58;7.20;;;6.15;;
31906;SDS011;18455;50.858;13.662;2023-08-20T07:28:59;11.40;;;6.72;;
31906;SDS011;18455;50.858;13.662;2023-08-20T07:34:02;9.07;;;6.13;;
31906;SDS011;18455;50.858;13.662;2023-08-20T07:39:03;9.43;;;6.07;;
31906;SDS011;18455;50.858;13.662;2023-08-20T07:44:03;8.00;;;5.00;;
31906;SDS011;18455;50.858;13.662;2023-08-20T07:49:04;9.32;;;5.40;;
31906;SDS011;18455;50.858;13.662;2023-08-20T07:54:05;6.65;;;5.47;;
31906;SDS011;18455;50.858;13.662;2023-08-20T07:59:05;5.28;;;4.75;;
31906;SDS011;18455;50.858;13.662;2023-08-20T08:04:05;9.68;;;4.90;;
31906;SDS011;18455;50.858;13.662;2023-08-20T08:09:18;8.38;;;4.88;;
31906;SDS011;18455;50.858;13.662;2023-08-20T08:14:26;6.57;;;4.68;;
31906;SDS011;18455;50.858;13.662;2023-08-20T08:19:27;5.25;;;4.68;;
31906;SDS011;18455;50.858;13.662;2023-08-20T08:24:27;6.70;;;4.45;;
31906;SDS011;18455;50.858;13.662;2023-08-20T08:29:28;6.93;;;4.87;;
31906;SDS011;18455;50.858;13.662;2023-08-20T08:34:28;5.75;;;3.80;;
31906;SDS011;18455;50.858;13.662;2023-08-20T08:39:28;5.78;;;3.70;;
31906;SDS011;18455;50.858;13.662;2023-08-20T08:44:30;4.27;;;3.80;;
31906;SDS011;18455;50.858;13.662;2023-08-20T08:49:34;7.38;;;4.30;;
31906;SDS011;18455;50.858;13.662;2023-08-20T08:54:34;8.60;;;4.72;;
31906;SDS011;18455;50.858;13.662;2023-08-20T08:59:35;4.82;;;4.00;;
31906;SDS011;18455;50.858;13.662;2023-08-20T09:04:39;7.88;;;4.50;;
31906;SDS011;18455;50.858;13.662;2023-08-20T09:09:44;11.05;;;3.88;;
31906;SDS011;18455;50.858;13.662;2023-08-20T09:14:46;5.05;;;3.70;;
31906;SDS011;18455;50.858;13.662;2023-08-20T09:19:48;4.70;;;4.22;;
31906;SDS011;18455;50.858;13.662;2023-08-20T09:24:54;9.90;;;4.07;;
31906;SDS011;18455;50.858;13.662;2023-08-20T09:29:56;8.82;;;4.20;;
31906;SDS011;18455;50.858;13.662;2023-08-20T09:34:59;6.30;;;4.30;;
31906;SDS011;18455;50.858;13.662;2023-08-20T09:40:00;10.00;;;4.40;;
31906;SDS011;18455;50.858;13.662;2023-08-20T09:45:01;5.85;;;4.10;;
31906;SDS011;18455;50.858;13.662;2023-08-20T09:50:04;8.05;;;4.35;;
31906;SDS011;18455;50.858;13.662;2023-08-20T09:55:11;7.43;;;4.55;;
31906;SDS011;18455;50.858;13.662;2023-08-20T10:00:14;9.88;;;4.80;;
31906;SDS011;18455;50.858;13.662;2023-08-20T10:05:14;6.43;;;4.60;;
31906;SDS011;18455;50.858;13.662;2023-08-20T10:10:15;8.38;;;6.07;;
31906;SDS011;18455;50.858;13.662;2023-08-20T10:15:17;7.45;;;6.80;;
31906;SDS011;18455;50.858;13.662;2023-08-20T10:20:17;9.35;;;7.60;;
31906;SDS011;18455;50.858;13.662;2023-08-20T10:25:24;8.93;;;7.75;;
31906;SDS011;18455;50.858;13.662;2023-08-20T10:30:26;9.77;;;7.00;;
31906;SDS011;18455;50.858;13.662;2023-08-20T10:35:27;7.45;;;6.22;;
31906;SDS011;18455;50.858;13.662;2023-08-20T10:46:01;8.55;;;6.03;;
31906;SDS011;18455;50.858;13.662;2023-08-20T10:51:26;9.98;;;6.90;;
31906;SDS011;18455;50.858;13.662;2023-08-20T10:56:41;9.98;;;5.80;;
31906;SDS011;18455;50.858;13.662;2023-08-20T11:01:48;8.48;;;5.93;;
31906;SDS011;18455;50.858;13.662;2023-08-20T11:06:50;11.32;;;5.55;;
31906;SDS011;18455;50.858;13.662;2023-08-20T11:11:54;9.60;;;5.85;;
31906;SDS011;18455;50.858;13.662;2023-08-20T11:16:55;9.57;;;6.03;;
31906;SDS011;18455;50.858;13.662;2023-08-20T11:21:55;8.10;;;5.50;;
31906;SDS011;18455;50.858;13.662;2023-08-20T11:26:55;16.97;;;6.27;;
31906;SDS011;18455;50.858;13.662;2023-08-20T11:31:56;12.00;;;6.20;;
31906;SDS011;18455;50.858;13.662;2023-08-20T11:36:57;10.18;;;5.50;;
31906;SDS011;18455;50.858;13.662;2023-08-20T11:41:58;9.95;;;5.90;;
31906;SDS011;18455;50.858;13.662;2023-08-20T11:46:59;7.60;;;5.28;;
31906;SDS011;18455;50.858;13.662;2023-08-20T11:51:59;8.27;;;6.10;;
31906;SDS011;18455;50.858;13.662;2023-08-20T11:57:03;6.28;;;5.68;;
31906;SDS011;18455;50.858;13.662;2023-08-20T12:02:04;6.80;;;5.35;;
31906;SDS011;18455;50.858;13.662;2023-08-20T12:07:05;12.93;;;6.27;;
31906;SDS011;18455;50.858;13.662;2023-08-20T12:12:09;7.15;;;5.20;;
31906;SDS011;18455;50.858;13.662;2023-08-20T12:17:09;7.47;;;5.30;;
31906;SDS011;18455;50.858;13.662;2023-08-20T12:22:10;9.47;;;5.60;;
31906;SDS011;18455;50.858;13.662;2023-08-20T12:27:10;7.45;;;5.40;;
31906;SDS011;18455;50.858;13.662;2023-08-20T12:32:11;7.87;;;5.43;;
31906;SDS011;18455;50.858;13.662;2023-08-20T12:37:11;9.02;;;5.50;;
31906;SDS011;18455;50.858;13.662;2023-08-20T12:42:11;7.50;;;5.50;;
31906;SDS011;18455;50.858;13.662;2023-08-20T12:47:12;7.32;;;4.80;;
31906;SDS011;18455;50.858;13.662;2023-08-20T12:52:12;6.63;;;5.27;;
31906;SDS011;18455;50.858;13.662;2023-08-20T12:57:12;6.10;;;5.50;;
31906;SDS011;18455;50.858;13.662;2023-08-20T13:02:13;6.40;;;4.83;;
31906;SDS011;18455;50.858;13.662;2023-08-20T13:07:13;7.70;;;5.10;;
31906;SDS011;18455;50.858;13.662;2023-08-20T13:12:14;5.72;;;4.43;;
31906;SDS011;18455;50.858;13.662;2023-08-20T13:17:15;5.20;;;4.40;;
31906;SDS011;18455;50.858;13.662;2023-08-20T13:22:15;4.80;;;4.40;;
31906;SDS011;18455;50.858;13.662;2023-08-20T13:27:16;6.18;;;4.32;;
31906;SDS011;18455;50.858;13.662;2023-08-20T13:32:17;8.63;;;4.17;;
31906;SDS011;18455;50.858;13.662;2023-08-20T13:37:17;9.40;;;5.47;;
31906;SDS011;18455;50.858;13.662;2023-08-20T13:42:17;8.40;;;4.78;;
31906;SDS011;18455;50.858;13.662;2023-08-20T13:47:18;7.23;;;4.20;;
31906;SDS011;18455;50.858;13.662;2023-08-20T13:52:18;6.73;;;4.50;;
31906;SDS011;18455;50.858;13.662;2023-08-20T13:57:19;6.87;;;4.53;;
31906;SDS011;18455;50.858;13.662;2023-08-20T14:02:19;6.25;;;4.20;;
31906;SDS011;18455;50.858;13.662;2023-08-20T14:07:20;5.72;;;4.65;;
31906;SDS011;18455;50.858;13.662;2023-08-20T14:12:20;8.10;;;4.30;;
31906;SDS011;18455;50.858;13.662;2023-08-20T14:17:20;6.23;;;4.33;;
31906;SDS011;18455;50.858;13.662;2023-08-20T14:22:21;6.00;;;4.20;;
31906;SDS011;18455;50.858;13.662;2023-08-20T14:27:21;4.75;;;4.05;;
31906;SDS011;18455;50.858;13.662;2023-08-20T14:32:22;8.00;;;4.25;;
31906;SDS011;18455;50.858;13.662;2023-08-20T14:37:23;5.82;;;3.83;;
31906;SDS011;18455;50.858;13.662;2023-08-20T14:42:23;6.78;;;4.88;;
31906;SDS011;18455;50.858;13.662;2023-08-20T14:47:24;6.15;;;4.07;;
31906;SDS011;18455;50.858;13.662;2023-08-20T14:52:24;7.50;;;4.40;;
31906;SDS011;18455;50.858;13.662;2023-08-20T14:57:24;4.47;;;3.72;;
31906;SDS011;18455;50.858;13.662;2023-08-20T15:02:25;4.88;;;3.53;;
31906;SDS011;18455;50.858;13.662;2023-08-20T15:07:25;4.70;;;3.47;;
31906;SDS011;18455;50.858;13.662;2023-08-20T15:12:26;7.73;;;3.83;;
31906;SDS011;18455;50.858;13.662;2023-08-20T15:17:26;5.35;;;3.78;;
31906;SDS011;18455;50.858;13.662;2023-08-20T15:22:26;9.15;;;4.13;;
31906;SDS011;18455;50.858;13.662;2023-08-20T15:27:27;9.80;;;4.28;;
31906;SDS011;18455;50.858;13.662;2023-08-20T15:32:28;8.80;;;3.53;;
31906;SDS011;18455;50.858;13.662;2023-08-20T15:37:28;8.18;;;3.75;;
31906;SDS011;18455;50.858;13.662;2023-08-20T15:42:29;5.82;;;3.40;;
31906;SDS011;18455;50.858;13.662;2023-08-20T15:47:29;6.93;;;2.67;;
31906;SDS011;18455;50.858;13.662;2023-08-20T15:52:30;8.00;;;3.00;;
31906;SDS011;18455;50.858;13.662;2023-08-20T15:57:30;5.10;;;3.08;;
31906;SDS011;18455;50.858;13.662;2023-08-20T16:02:31;4.70;;;2.88;;
31906;SDS011;18455;50.858;13.662;2023-08-20T16:07:31;4.97;;;3.15;;
31906;SDS011;18455;50.858;13.662;2023-08-20T16:12:31;3.63;;;2.85;;
31906;SDS011;18455;50.858;13.662;2023-08-20T16:17:32;5.30;;;2.75;;
31906;SDS011;18455;50.858;13.662;2023-08-20T16:22:32;8.50;;;3.60;;
31906;SDS011;18455;50.858;13.662;2023-08-20T16:27:32;4.93;;;3.55;;
31906;SDS011;18455;50.858;13.662;2023-08-20T16:32:33;4.43;;;3.20;;
31906;SDS011;18455;50.858;13.662;2023-08-20T16:37:33;7.75;;;3.38;;
31906;SDS011;18455;50.858;13.662;2023-08-20T16:42:34;5.05;;;3.17;;
31906;SDS011;18455;50.858;13.662;2023-08-20T16:47:35;6.38;;;3.42;;
31906;SDS011;18455;50.858;13.662;2023-08-20T16:52:35;3.38;;;3.08;;
31906;SDS011;18455;50.858;13.662;2023-08-20T16:57:36;6.13;;;3.25;;
31906;SDS011;18455;50.858;13.662;2023-08-20T17:02:36;4.93;;;3.50;;
31906;SDS011;18455;50.858;13.662;2023-08-20T17:07:37;5.65;;;3.53;;
31906;SDS011;18455;50.858;13.662;2023-08-20T17:12:39;6.15;;;3.78;;
31906;SDS011;18455;50.858;13.662;2023-08-20T17:17:39;6.60;;;4.20;;
31906;SDS011;18455;50.858;13.662;2023-08-20T17:22:40;6.68;;;3.95;;
31906;SDS011;18455;50.858;13.662;2023-08-20T17:27:41;5.60;;;4.10;;
31906;SDS011;18455;50.858;13.662;2023-08-20T17:32:41;5.75;;;4.00;;
31906;SDS011;18455;50.858;13.662;2023-08-20T17:37:41;6.72;;;3.88;;
31906;SDS011;18455;50.858;13.662;2023-08-20T17:42:42;5.80;;;4.20;;
31906;SDS011;18455;50.858;13.662;2023-08-20T17:47:42;4.93;;;3.90;;
31906;SDS011;18455;50.858;13.662;2023-08-20T17:52:43;6.18;;;4.00;;
31906;SDS011;18455;50.858;13.662;2023-08-20T17:57:43;4.47;;;3.80;;
31906;SDS011;18455;50.858;13.662;2023-08-20T18:02:43;9.07;;;4.75;;
31906;SDS011;18455;50.858;13.662;2023-08-20T18:07:44;7.93;;;5.22;;
31906;SDS011;18455;50.858;13.662;2023-08-20T18:12:45;6.63;;;4.93;;
31906;SDS011;18455;50.858;13.662;2023-08-20T18:17:45;8.05;;;5.60;;
31906;SDS011;18455;50.858;13.662;2023-08-20T18:22:46;9.00;;;5.65;;
31906;SDS011;18455;50.858;13.662;2023-08-20T18:27:47;8.98;;;5.85;;
31906;SDS011;18455;50.858;13.662;2023-08-20T18:32:48;6.53;;;5.53;;
31906;SDS011;18455;50.858;13.662;2023-08-20T18:37:48;9.02;;;6.05;;
31906;SDS011;18455;50.858;13.662;2023-08-20T18:42:49;12.65;;;6.53;;
31906;SDS011;18455;50.858;13.662;2023-08-20T18:47:49;8.40;;;5.90;;
31906;SDS011;18455;50.858;13.662;2023-08-20T18:52:50;8.32;;;6.32;;
31906;SDS011;18455;50.858;13.662;2023-08-20T18:57:50;11.18;;;6.60;;
31906;SDS011;18455;50.858;13.662;2023-08-20T19:02:50;7.93;;;6.68;;
31906;SDS011;18455;50.858;13.662;2023-08-20T19:07:51;7.65;;;6.50;;
31906;SDS011;18455;50.858;13.662;2023-08-20T19:12:53;8.85;;;6.90;;
31906;SDS011;18455;50.858;13.662;2023-08-20T19:17:53;8.25;;;7.45;;
31906;SDS011;18455;50.858;13.662;2023-08-20T19:22:53;11.98;;;7.43;;
31906;SDS011;18455;50.858;13.662;2023-08-20T19:27:54;12.07;;;7.57;;
31906;SDS011;18455;50.858;13.662;2023-08-20T19:32:54;13.07;;;7.50;;
31906;SDS011;18455;50.858;13.662;2023-08-20T19:37:54;11.25;;;8.13;;
31906;SDS011;18455;50.858;13.662;2023-08-20T19:42:55;11.13;;;8.05;;
31906;SDS011;18455;50.858;13.662;2023-08-20T19:47:55;11.52;;;8.80;;
31906;SDS011;18455;50.858;13.662;2023-08-20T19:52:55;10.60;;;8.40;;
31906;SDS011;18455;50.858;13.662;2023-08-20T19:57:56;10.60;;;8.05;;
31906;SDS011;18455;50.858;13.662;2023-08-20T20:02:57;11.18;;;8.23;;
31906;SDS011;18455;50.858;13.662;2023-08-20T20:07:58;14.38;;;7.57;;
31906;SDS011;18455;50.858;13.662;2023-08-20T20:12:59;11.70;;;7.65;;
31906;SDS011;18455;50.858;13.662;2023-08-20T20:17:59;8.27;;;7.22;;
31906;SDS011;18455;50.858;13.662;2023-08-20T20:22:59;9.13;;;7.90;;
31906;SDS011;18455;50.858;13.662;2023-08-20T20:28:00;8.55;;;7.68;;
31906;SDS011;18455;50.858;13.662;2023-08-20T20:33:00;10.05;;;8.40;;
31906;SDS011;18455;50.858;13.662;2023-08-20T20:38:01;10.00;;;7.45;;
31906;SDS011;18455;50.858;13.662;2023-08-20T20:43:01;10.45;;;7.30;;
31906;SDS011;18455;50.858;13.662;2023-08-20T20:48:01;16.00;;;8.90;;
31906;SDS011;18455;50.858;13.662;2023-08-20T20:53:03;12.45;;;8.23;;
31906;SDS011;18455;50.858;13.662;2023-08-20T20:58:04;10.38;;;7.85;;
31906;SDS011;18455;50.858;13.662;2023-08-20T21:03:04;11.18;;;8.30;;
31906;SDS011;18455;50.858;13.662;2023-08-20T21:08:05;11.15;;;7.90;;
31906;SDS011;18455;50.858;13.662;2023-08-20T21:13:05;13.10;;;8.35;;
31906;SDS011;18455;50.858;13.662;2023-08-20T21:18:10;9.43;;;7.43;;
31906;SDS011;18455;50.858;13.662;2023-08-20T21:23:10;10.82;;;7.47;;
31906;SDS011;18455;50.858;13.662;2023-08-20T21:28:10;11.07;;;7.75;;
31906;SDS011;18455;50.858;13.662;2023-08-20T21:33:11;10.32;;;7.10;;
31906;SDS011;18455;50.858;13.662;2023-08-20T21:38:11;12.18;;;7.72;;
31906;SDS011;18455;50.858;13.662;2023-08-20T21:43:11;10.35;;;7.72;;
31906;SDS011;18455;50.858;13.662;2023-08-20T21:48:12;9.98;;;7.35;;
31906;SDS011;18455;50.858;13.662;2023-08-20T21:53:12;14.30;;;7.88;;
31906;SDS011;18455;50.858;13.662;2023-08-20T21:58:13;8.48;;;7.47;;
31906;SDS011;18455;50.858;13.662;2023-08-20T22:03:13;9.07;;;7.97;;
31906;SDS011;18455;50.858;13.662;2023-08-20T22:08:13;13.13;;;7.57;;
31906;SDS011;18455;50.858;13.662;2023-08-20T22:13:17;11.57;;;7.20;;
31906;SDS011;18455;50.858;13.662;2023-08-20T22:18:17;9.40;;;8.40;;
31906;SDS011;18455;50.858;13.662;2023-08-20T22:23:17;11.43;;;8.18;;
31906;SDS011;18455;50.858;13.662;2023-08-20T22:28:18;9.25;;;8.00;;
31906;SDS011;18455;50.858;13.662;2023-08-20T22:33:18;12.10;;;8.98;;
31906;SDS011;18455;50.858;13.662;2023-08-20T22:38:19;10.95;;;8.45;;
31906;SDS011;18455;50.858;13.662;2023-08-20T22:43:19;10.68;;;9.00;;
31906;SDS011;18455;50.858;13.662;2023-08-20T22:48:20;13.20;;;9.95;;
31906;SDS011;18455;50.858;13.662;2023-08-20T22:53:21;17.58;;;9.27;;
31906;SDS011;18455;50.858;13.662;2023-08-20T22:58:21;11.70;;;9.00;;
31906;SDS011;18455;50.858;13.662;2023-08-20T23:03:21;14.48;;;9.10;;
31906;SDS011;18455;50.858;13.662;2023-08-20T23:08:22;11.27;;;10.07;;
31906;SDS011;18455;50.858;13.662;2023-08-20T23:13:22;11.55;;;9.50;;
31906;SDS011;18455;50.858;13.662;2023-08-20T23:18:23;20.90;;;11.15;;
31906;SDS011;18455;50.858;13.662;2023-08-20T23:23:23;12.68;;;10.40;;
31906;SDS011;18455;50.858;13.662;2023-08-20T23:28:24;11.90;;;9.75;;
31906;SDS011;18455;50.858;13.662;2023-08-20T23:33:24;12.05;;;10.65;;
31906;SDS011;18455;50.858;13.662;2023-08-20T23:38:24;12.20;;;11.00;;
31906;SDS011;18455;50.858;13.662;2023-08-20T23:43:25;11.90;;;10.35;;
31906;SDS011;18455;50.858;13.662;2023-08-20T23:48:26;13.77;;;11.45;;
31906;SDS011;18455;50.858;13.662;2023-08-20T23:53:27;16.00;;;10.73;;
31906;SDS011;18455;50.858;13.662;2023-08-20T23:58:28;15.55;;;11.85;;
